Time;durP1;ratioP1;P1;durP2;ratioP2;P2;SDS_P1;SDS_P2;PMS_P1;PMS_P2;Temp;Humidity;BMP_temperature;BMP_pressure;BME280_temperature;BME280_humidity;BME280_pressure;Samples;Min_cycle;Max_cycle;Signal;HPM_P1;HPM_P2
2022/01/13 00:01:31;;;;;;;33.13;16.30;;;3.20;99.90;;;;;;2618941;47;21373;-80
2022/01/13 00:03:58;;;;;;;43.10;24.63;;;3.10;99.90;;;;;;2618873;46;20393;-80
2022/01/13 00:06:24;;;;;;;50.10;24.93;;;3.20;99.90;;;;;;2618812;47;20376;-81
2022/01/13 00:08:52;;;;;;;52.17;25.80;;;3.30;99.90;;;;;;2618725;47;20391;-80
2022/01/13 00:11:17;;;;;;;45.50;23.30;;;3.40;99.90;;;;;;2618891;54;20384;-80
2022/01/13 00:14:07;;;;;;;52.90;27.50;;;3.30;99.90;;;;;;2619038;47;20396;-80
2022/01/13 00:21:38;;;;;;;44.20;20.83;;;3.30;99.90;;;;;;2618727;54;20382;-80
2022/01/13 00:24:05;;;;;;;47.43;25.47;;;3.20;99.90;;;;;;2618951;54;20372;-83
2022/01/13 00:26:34;;;;;;;48.90;21.40;;;3.20;99.90;;;;;;2618783;54;20355;-79
2022/01/13 00:29:03;;;;;;;47.70;26.73;;;3.30;99.90;;;;;;2618338;54;20371;-79
2022/01/13 00:31:33;;;;;;;47.00;23.50;;;3.30;99.90;;;;;;2618879;47;20372;-80
2022/01/13 00:34:03;;;;;;;62.07;27.37;;;3.30;99.90;;;;;;2618919;47;20387;-80
2022/01/13 00:36:35;;;;;;;64.30;29.97;;;3.30;99.90;;;;;;2618912;54;20379;-79
2022/01/13 00:39:02;;;;;;;48.43;24.47;;;3.40;99.90;;;;;;2619548;46;20388;-78
2022/01/13 00:41:30;;;;;;;51.23;24.60;;;3.20;99.90;;;;;;2619793;47;20471;-80
2022/01/13 00:43:57;;;;;;;55.83;26.93;;;3.20;99.90;;;;;;2619768;54;20391;-81
2022/01/13 00:46:26;;;;;;;46.63;20.87;;;3.20;99.90;;;;;;2619674;54;20951;-79
2022/01/13 00:48:54;;;;;;;65.97;27.40;;;3.10;99.90;;;;;;2619673;47;20380;-80
2022/01/13 00:51:24;;;;;;;28.07;15.07;;;3.10;99.90;;;;;;2619558;47;20944;-78
2022/01/13 00:53:50;;;;;;;62.13;27.50;;;3.00;99.90;;;;;;2620168;54;20388;-79
2022/01/13 00:56:18;;;;;;;53.93;26.97;;;3.10;99.90;;;;;;2619449;54;20383;-80
2022/01/13 00:58:44;;;;;;;42.23;21.53;;;3.10;99.90;;;;;;2620308;47;20399;-80
2022/01/13 01:01:15;;;;;;;45.53;21.57;;;3.20;99.90;;;;;;2619984;47;20463;-79
2022/01/13 01:03:41;;;;;;;56.50;29.63;;;3.20;99.90;;;;;;2619898;39;20730;-79
2022/01/13 01:06:08;;;;;;;54.83;27.27;;;3.20;99.90;;;;;;2619407;47;20371;-80
2022/01/13 01:08:34;;;;;;;35.80;19.73;;;3.20;99.90;;;;;;2619311;47;20383;-80
2022/01/13 01:11:03;;;;;;;69.53;27.97;;;3.20;99.90;;;;;;2619616;54;20401;-79
2022/01/13 01:13:33;;;;;;;64.17;24.60;;;3.10;99.90;;;;;;2619382;54;20166;-79
2022/01/13 01:16:02;;;;;;;47.17;20.97;;;3.10;99.90;;;;;;2619467;47;20908;-79
2022/01/13 01:23:36;;;;;;;60.53;28.30;;;3.00;99.90;;;;;;2619478;47;20384;-81
2022/01/13 01:26:31;;;;;;;63.77;29.80;;;3.10;99.90;;;;;;2619641;54;20459;-80
2022/01/13 01:29:04;;;;;;;47.70;21.97;;;3.10;99.90;;;;;;2619180;47;20396;-80
2022/01/13 01:31:33;;;;;;;60.37;27.13;;;3.00;99.90;;;;;;2619571;46;20362;-80
2022/01/13 01:36:32;;;;;;;55.70;27.57;;;3.20;99.90;;;;;;2619500;46;20392;-80
2022/01/13 01:38:59;;;;;;;53.97;29.53;;;3.30;99.90;;;;;;2618936;47;20399;-79
2022/01/13 01:41:50;;;;;;;58.20;27.63;;;3.30;99.90;;;;;;2619831;47;20391;-80
2022/01/13 01:44:25;;;;;;;44.53;23.70;;;3.20;99.90;;;;;;2618748;47;20384;-80
2022/01/13 01:46:51;;;;;;;34.80;17.30;;;3.10;99.90;;;;;;2618576;54;20382;-80
2022/01/13 01:49:21;;;;;;;61.93;30.60;;;3.10;99.90;;;;;;2618603;54;20430;-79
2022/01/13 01:51:54;;;;;;;66.33;29.07;;;3.20;99.90;;;;;;2619260;31;20848;-79
2022/01/13 01:54:20;;;;;;;46.20;23.97;;;3.20;99.90;;;;;;2618974;39;20760;-81
2022/01/13 01:56:46;;;;;;;39.07;20.00;;;3.30;99.90;;;;;;2618360;47;20929;-78
2022/01/13 01:59:16;;;;;;;54.20;28.47;;;3.20;99.90;;;;;;2618490;54;20387;-79
2022/01/13 02:01:45;;;;;;;52.43;23.33;;;3.30;99.90;;;;;;2620777;47;20915;-82
2022/01/13 02:04:11;;;;;;;63.33;25.70;;;3.10;99.90;;;;;;2623563;54;22118;-82
2022/01/13 02:06:37;;;;;;;52.57;26.10;;;3.00;99.90;;;;;;2622982;47;21053;-81
2022/01/13 02:09:08;;;;;;;59.30;24.07;;;3.00;99.90;;;;;;2622487;46;20406;-82
2022/01/13 02:11:41;;;;;;;58.67;27.80;;;3.00;99.90;;;;;;2623106;54;20967;-83
2022/01/13 02:16:59;;;;;;;62.43;22.37;;;3.00;99.90;;;;;;2622446;47;20414;-81
2022/01/13 02:19:26;;;;;;;41.73;21.87;;;3.10;99.90;;;;;;2622506;47;20388;-81
2022/01/13 02:21:53;;;;;;;50.50;20.73;;;3.10;99.90;;;;;;2622748;46;20370;-82
2022/01/13 02:24:19;;;;;;;59.73;28.40;;;3.20;99.90;;;;;;2623060;47;20387;-82
2022/01/13 02:26:45;;;;;;;62.97;29.27;;;3.20;99.90;;;;;;2622996;39;20932;-81
2022/01/13 02:29:10;;;;;;;71.03;28.93;;;3.40;99.90;;;;;;2622362;54;20191;-82
2022/01/13 02:31:36;;;;;;;43.90;20.77;;;3.20;99.90;;;;;;2622351;47;20246;-82
2022/01/13 02:34:03;;;;;;;52.63;24.57;;;3.10;99.90;;;;;;2622652;54;20381;-82
2022/01/13 02:36:30;;;;;;;33.53;16.43;;;3.10;99.90;;;;;;2622452;47;20400;-82
2022/01/13 02:38:58;;;;;;;42.33;21.87;;;3.10;99.90;;;;;;2623053;46;20350;-81
2022/01/13 02:41:25;;;;;;;63.43;29.83;;;3.00;99.90;;;;;;2621875;54;20362;-81
2022/01/13 02:43:56;;;;;;;50.17;27.47;;;3.10;99.90;;;;;;2622215;54;20392;-82
2022/01/13 02:49:04;;;;;;;44.07;21.30;;;3.40;99.90;;;;;;2621818;47;20463;-81
2022/01/13 02:51:30;;;;;;;42.07;17.77;;;3.10;99.90;;;;;;2622867;46;20904;-82
2022/01/13 02:53:56;;;;;;;61.97;28.70;;;3.00;99.90;;;;;;2623044;47;20410;-82
2022/01/13 02:56:23;;;;;;;48.97;22.37;;;3.10;99.90;;;;;;2623063;47;20350;-83
2022/01/13 02:58:48;;;;;;;54.33;28.40;;;2.90;99.90;;;;;;2623134;54;20139;-83
2022/01/13 03:01:16;;;;;;;77.20;33.30;;;3.00;99.90;;;;;;2623818;47;20473;-82
2022/01/13 03:03:43;;;;;;;52.80;25.50;;;3.00;99.90;;;;;;2622798;47;20442;-82
2022/01/13 03:06:11;;;;;;;37.47;17.90;;;3.00;99.90;;;;;;2623994;54;20431;-82
2022/01/13 03:08:41;;;;;;;59.93;31.27;;;3.00;99.90;;;;;;2624162;39;20850;-81
2022/01/13 03:11:07;;;;;;;42.93;21.47;;;3.00;99.90;;;;;;2624085;54;20384;-82
2022/01/13 03:13:35;;;;;;;69.40;26.23;;;2.90;99.90;;;;;;2623405;47;20469;-83
2022/01/13 03:16:12;;;;;;;51.47;26.30;;;2.90;99.90;;;;;;2623934;54;20429;-82
2022/01/13 03:18:39;;;;;;;57.87;29.57;;;2.90;99.90;;;;;;2623785;46;20387;-84
2022/01/13 03:21:07;;;;;;;62.43;29.47;;;3.10;99.90;;;;;;2623565;46;20431;-82
2022/01/13 03:23:37;;;;;;;60.23;28.70;;;3.20;99.90;;;;;;2623376;47;20399;-82
2022/01/13 03:26:03;;;;;;;48.73;18.23;;;3.10;99.90;;;;;;2624449;54;20378;-82
2022/01/13 03:28:39;;;;;;;40.23;22.63;;;2.90;99.90;;;;;;2624353;54;20440;-83
2022/01/13 03:31:06;;;;;;;64.53;30.23;;;2.80;99.90;;;;;;2623442;46;20410;-84
2022/01/13 03:33:33;;;;;;;40.10;19.93;;;2.90;99.90;;;;;;2623660;39;20940;-82
2022/01/13 03:36:00;;;;;;;64.80;31.43;;;2.90;99.90;;;;;;2623292;47;20420;-83
2022/01/13 03:38:26;;;;;;;76.67;33.97;;;3.00;99.90;;;;;;2622894;47;20379;-82
2022/01/13 03:40:52;;;;;;;34.17;19.27;;;3.00;99.90;;;;;;2623745;47;20512;-82
2022/01/13 03:43:18;;;;;;;42.27;20.10;;;2.90;99.90;;;;;;2623508;47;20368;-82
2022/01/13 03:45:45;;;;;;;66.00;32.33;;;2.90;99.90;;;;;;2623725;47;20146;-84
2022/01/13 03:48:14;;;;;;;70.53;32.00;;;3.00;99.90;;;;;;2623584;54;20434;-82
2022/01/13 03:50:41;;;;;;;63.70;31.47;;;3.00;99.90;;;;;;2623129;47;20976;-82
2022/01/13 03:53:26;;;;;;;70.53;32.97;;;2.90;99.90;;;;;;2623140;54;20367;-81
2022/01/13 03:56:25;;;;;;;67.00;28.80;;;3.00;99.90;;;;;;2623726;46;20409;-83
2022/01/13 03:59:30;;;;;;;71.40;32.23;;;2.90;99.90;;;;;;2622686;46;20403;-84
2022/01/13 04:02:00;;;;;;;61.00;33.90;;;3.00;99.90;;;;;;2622718;46;20367;-83
2022/01/13 04:04:28;;;;;;;51.23;26.70;;;3.00;99.90;;;;;;2623325;54;20426;-81
2022/01/13 04:07:26;;;;;;;70.60;33.60;;;2.90;99.90;;;;;;2623036;46;20396;-82
2022/01/13 04:09:55;;;;;;;76.57;31.50;;;3.00;99.90;;;;;;2622656;54;20426;-83
2022/01/13 04:12:23;;;;;;;85.40;36.07;;;3.00;99.90;;;;;;2622910;47;20359;-83
2022/01/13 04:14:53;;;;;;;68.93;34.80;;;3.00;99.90;;;;;;2623108;54;20399;-82
2022/01/13 04:17:22;;;;;;;74.10;35.93;;;2.90;99.90;;;;;;2622860;46;20429;-83
2022/01/13 04:19:48;;;;;;;69.73;30.37;;;2.90;99.90;;;;;;2623203;54;20392;-83
2022/01/13 04:22:15;;;;;;;83.90;38.07;;;2.90;99.90;;;;;;2623083;47;20402;-82
2022/01/13 04:24:46;;;;;;;68.10;37.00;;;2.90;99.90;;;;;;2623293;54;20384;-83
2022/01/13 04:27:21;;;;;;;62.57;32.00;;;2.80;99.90;;;;;;2622783;47;20407;-83
2022/01/13 04:29:49;;;;;;;78.77;37.47;;;2.90;99.90;;;;;;2623589;47;20383;-81
2022/01/13 04:32:15;;;;;;;51.87;24.83;;;2.90;99.90;;;;;;2622589;47;20511;-81
2022/01/13 04:34:41;;;;;;;48.97;25.37;;;2.90;99.90;;;;;;2623523;46;20428;-81
2022/01/13 04:37:07;;;;;;;43.63;19.00;;;2.80;99.90;;;;;;2622604;47;20383;-82
2022/01/13 04:39:33;;;;;;;88.23;38.53;;;2.80;99.90;;;;;;2622931;46;20146;-81
2022/01/13 04:41:59;;;;;;;76.40;36.07;;;2.80;99.90;;;;;;2624366;39;20669;-81
2022/01/13 04:44:25;;;;;;;56.57;27.00;;;2.70;99.90;;;;;;2622897;47;20397;-81
2022/01/13 04:46:54;;;;;;;33.83;19.73;;;2.80;99.90;;;;;;2623404;47;20376;-82
2022/01/13 04:49:21;;;;;;;56.67;25.23;;;2.80;99.90;;;;;;2623018;47;20400;-82
2022/01/13 04:51:49;;;;;;;75.93;36.43;;;2.90;99.90;;;;;;2623724;46;20367;-82
2022/01/13 04:54:16;;;;;;;42.60;22.63;;;2.90;99.90;;;;;;2622671;47;20956;-81
2022/01/13 04:59:28;;;;;;;69.57;37.00;;;3.00;99.90;;;;;;2622068;47;20410;-82
2022/01/13 05:01:54;;;;;;;65.50;33.70;;;3.00;99.90;;;;;;2622288;47;20375;-82
2022/01/13 05:04:21;;;;;;;57.30;28.90;;;3.00;99.90;;;;;;2622877;54;20395;-82
2022/01/13 05:06:47;;;;;;;47.93;27.03;;;2.80;99.90;;;;;;2623159;47;20350;-83
2022/01/13 05:09:12;;;;;;;51.00;25.47;;;2.80;99.90;;;;;;2622627;54;20960;-84
2022/01/13 05:11:39;;;;;;;71.90;34.77;;;2.80;99.90;;;;;;2623123;46;20483;-81
2022/01/13 05:14:05;;;;;;;69.57;32.97;;;2.80;99.90;;;;;;2623095;46;20139;-82
2022/01/13 05:19:21;;;;;;;63.70;33.70;;;2.80;99.90;;;;;;2623564;47;20993;-81
2022/01/13 05:24:26;;;;;;;53.40;28.07;;;2.80;99.90;;;;;;2622818;54;20447;-83
2022/01/13 05:26:53;;;;;;;66.97;33.97;;;2.80;99.90;;;;;;2622472;46;20390;-82
2022/01/13 05:29:20;;;;;;;55.73;34.00;;;2.70;99.90;;;;;;2622261;54;20410;-84
2022/01/13 05:31:49;;;;;;;68.00;34.87;;;2.70;99.90;;;;;;2622691;39;20793;-82
2022/01/13 05:34:40;;;;;;;47.37;23.00;;;2.60;99.90;;;;;;2622406;46;20384;-81
2022/01/13 05:37:06;;;;;;;58.33;27.13;;;2.70;99.90;;;;;;2622098;46;20391;-82
2022/01/13 05:39:32;;;;;;;51.23;26.37;;;2.60;99.90;;;;;;2623046;31;20819;-82
2022/01/13 05:41:58;;;;;;;54.10;27.60;;;2.60;99.90;;;;;;2622538;54;20147;-84
2022/01/13 05:44:24;;;;;;;75.23;32.00;;;2.60;99.90;;;;;;2622422;54;20379;-82
2022/01/13 05:46:52;;;;;;;40.13;22.77;;;2.60;99.90;;;;;;2621760;46;20142;-83
2022/01/13 05:49:20;;;;;;;55.00;23.77;;;2.60;99.90;;;;;;2622288;47;20924;-81
2022/01/13 05:51:46;;;;;;;38.80;20.20;;;2.60;99.90;;;;;;2622354;47;20376;-83
2022/01/13 05:54:12;;;;;;;48.53;24.87;;;2.60;99.90;;;;;;2622217;47;20403;-82
2022/01/13 05:56:38;;;;;;;65.40;30.50;;;2.60;99.90;;;;;;2622530;46;20139;-82
2022/01/13 05:59:03;;;;;;;63.07;32.67;;;2.60;99.90;;;;;;2622757;47;20141;-81
2022/01/13 06:01:29;;;;;;;55.67;26.30;;;2.50;99.90;;;;;;2622435;54;20197;-82
2022/01/13 06:03:55;;;;;;;66.33;36.03;;;2.60;99.90;;;;;;2622813;47;20145;-82
2022/01/13 06:06:23;;;;;;;63.87;33.37;;;2.60;99.90;;;;;;2624143;47;20376;-82
2022/01/13 06:08:49;;;;;;;57.67;30.60;;;2.60;99.90;;;;;;2624979;47;20626;-83
2022/01/13 06:11:15;;;;;;;82.23;36.87;;;2.50;99.90;;;;;;2624473;54;20549;-82
2022/01/13 06:13:41;;;;;;;72.50;29.03;;;2.60;99.90;;;;;;2624492;47;20145;-81
2022/01/13 06:16:07;;;;;;;37.77;19.13;;;2.50;99.90;;;;;;2624911;47;20371;-81
2022/01/13 06:18:32;;;;;;;53.43;25.87;;;2.50;99.90;;;;;;2624594;54;20384;-84
2022/01/13 06:20:58;;;;;;;47.80;23.07;;;2.40;99.90;;;;;;2624750;54;20139;-82
2022/01/13 06:23:24;;;;;;;56.93;28.73;;;2.30;99.90;;;;;;2624340;39;21175;-82
2022/01/13 06:25:52;;;;;;;69.03;32.93;;;2.40;99.90;;;;;;2623658;47;20147;-83
2022/01/13 06:28:18;;;;;;;67.20;36.27;;;2.50;99.90;;;;;;2625560;39;20568;-83
2022/01/13 06:30:44;;;;;;;72.70;36.43;;;2.50;99.90;;;;;;2626511;47;20499;-82
2022/01/13 06:33:19;;;;;;;91.40;38.10;;;2.80;99.90;;;;;;2626397;54;20384;-82
2022/01/13 06:35:56;;;;;;;73.20;35.10;;;2.70;99.90;;;;;;2626681;47;20414;-82
2022/01/13 06:38:25;;;;;;;63.90;32.77;;;2.60;99.90;;;;;;2626758;47;20395;-82
2022/01/13 06:41:01;;;;;;;72.40;35.37;;;2.60;99.90;;;;;;2626943;47;20518;-82
2022/01/13 06:43:27;;;;;;;61.17;35.70;;;2.60;99.90;;;;;;2626509;54;20356;-81
2022/01/13 06:45:55;;;;;;;51.67;26.43;;;2.50;99.90;;;;;;2625718;47;21058;-82
2022/01/13 06:48:21;;;;;;;54.47;27.80;;;2.40;99.90;;;;;;2626088;47;20371;-82
2022/01/13 06:50:47;;;;;;;75.57;35.80;;;2.30;99.90;;;;;;2626219;39;20840;-83
2022/01/13 06:53:13;;;;;;;71.30;35.13;;;2.30;99.90;;;;;;2624499;47;20402;-83
2022/01/13 06:55:39;;;;;;;61.73;31.93;;;2.40;99.90;;;;;;2625241;47;20135;-82
2022/01/13 06:58:05;;;;;;;46.47;20.37;;;2.50;99.90;;;;;;2624998;54;20375;-82
2022/01/13 07:00:33;;;;;;;53.80;27.43;;;2.40;99.90;;;;;;2626798;46;20355;-81
2022/01/13 07:03:02;;;;;;;73.60;35.70;;;2.40;99.90;;;;;;2625455;54;20388;-82
2022/01/13 07:05:30;;;;;;;41.33;24.20;;;2.40;99.90;;;;;;2625042;39;22962;-83
2022/01/13 07:07:58;;;;;;;74.20;34.70;;;2.30;99.90;;;;;;2625139;54;20405;-83
2022/01/13 07:10:24;;;;;;;74.57;33.60;;;2.40;99.90;;;;;;2624810;47;20376;-80
2022/01/13 07:12:50;;;;;;;58.43;28.80;;;2.40;99.90;;;;;;2625384;47;20388;-82
2022/01/13 07:15:19;;;;;;;54.47;23.60;;;2.30;99.90;;;;;;2625849;47;20748;-83
2022/01/13 07:17:48;;;;;;;59.10;27.87;;;2.30;99.90;;;;;;2625990;47;20379;-82
2022/01/13 07:20:21;;;;;;;61.97;32.33;;;2.30;99.90;;;;;;2626174;47;20410;-82
2022/01/13 07:22:47;;;;;;;72.80;35.33;;;2.30;99.90;;;;;;2625615;54;20383;-84
2022/01/13 07:25:13;;;;;;;42.20;23.87;;;2.30;99.90;;;;;;2625472;47;20380;-84
2022/01/13 07:27:40;;;;;;;67.97;32.00;;;2.30;99.90;;;;;;2627216;39;20881;-83
2022/01/13 07:30:08;;;;;;;48.27;21.03;;;2.30;99.90;;;;;;2625050;47;20986;-82
2022/01/13 07:33:01;;;;;;;69.77;35.97;;;2.30;99.90;;;;;;2626284;54;20374;-82
2022/01/13 07:35:27;;;;;;;62.47;29.37;;;2.20;99.90;;;;;;2626320;47;20481;-83
2022/01/13 07:37:53;;;;;;;75.40;35.37;;;2.20;99.90;;;;;;2625707;47;20379;-83
2022/01/13 07:40:19;;;;;;;71.77;33.87;;;2.40;99.90;;;;;;2625173;47;20146;-83
2022/01/13 07:42:46;;;;;;;46.47;20.50;;;2.50;99.90;;;;;;2625656;47;20376;-82
2022/01/13 07:45:15;;;;;;;74.37;33.73;;;2.50;99.90;;;;;;2625047;46;20665;-83
2022/01/13 07:47:41;;;;;;;68.50;32.40;;;2.40;99.90;;;;;;2626048;54;20455;-83
2022/01/13 07:50:09;;;;;;;70.57;35.57;;;2.40;99.90;;;;;;2626128;54;20497;-81
2022/01/13 07:52:40;;;;;;;59.70;28.00;;;2.50;99.90;;;;;;2625690;47;20367;-82
2022/01/13 07:55:14;;;;;;;73.83;36.40;;;2.60;99.90;;;;;;2625128;47;20518;-84
2022/01/13 07:57:43;;;;;;;64.97;27.47;;;2.90;99.90;;;;;;2627271;39;20855;-84
2022/01/13 08:00:13;;;;;;;62.03;31.60;;;2.60;99.90;;;;;;2626140;54;20415;-83
2022/01/13 08:02:42;;;;;;;74.37;37.03;;;2.50;99.90;;;;;;2625888;47;20371;-82
2022/01/13 08:05:11;;;;;;;72.13;35.73;;;2.50;99.90;;;;;;2625597;47;20382;-82
2022/01/13 08:07:42;;;;;;;50.20;26.90;;;2.60;99.90;;;;;;2625518;47;20396;-82
2022/01/13 08:10:08;;;;;;;81.50;35.93;;;2.50;99.90;;;;;;2626134;47;20355;-82
2022/01/13 08:12:53;;;;;;;87.37;38.70;;;2.50;99.90;;;;;;2625238;47;20426;-83
2022/01/13 08:15:22;;;;;;;42.83;26.30;;;2.40;99.90;;;;;;2625302;39;20776;-81
2022/01/13 08:20:35;;;;;;;37.70;20.93;;;2.40;99.90;;;;;;2626237;46;20397;-83
2022/01/13 08:23:02;;;;;;;46.73;21.57;;;2.40;99.90;;;;;;2626695;46;20384;-83
2022/01/13 08:25:30;;;;;;;72.67;32.77;;;2.30;99.90;;;;;;2626199;54;20392;-83
2022/01/13 08:27:58;;;;;;;68.67;33.27;;;2.40;99.90;;;;;;2626851;39;20856;-81
2022/01/13 08:30:32;;;;;;;46.83;20.03;;;2.40;99.90;;;;;;2625376;47;20444;-84
2022/01/13 08:33:01;;;;;;;51.43;22.60;;;2.50;99.90;;;;;;2625954;47;20386;-82
2022/01/13 08:35:51;;;;;;;72.77;34.80;;;2.50;99.90;;;;;;2625810;46;20364;-83
2022/01/13 08:38:20;;;;;;;47.53;19.90;;;2.70;99.90;;;;;;2625905;54;20370;-83
2022/01/13 08:40:53;;;;;;;72.77;35.77;;;2.60;99.90;;;;;;2625875;47;20418;-83
2022/01/13 08:43:27;;;;;;;50.77;26.30;;;2.50;99.90;;;;;;2626816;39;20884;-83
2022/01/13 08:45:54;;;;;;;65.30;33.90;;;2.40;99.90;;;;;;2626184;39;20869;-83
2022/01/13 08:48:20;;;;;;;61.13;28.00;;;2.50;99.90;;;;;;2625208;54;20388;-84
2022/01/13 08:51:12;;;;;;;29.27;18.07;;;2.60;99.90;;;;;;2626195;47;20495;-82
2022/01/13 08:53:38;;;;;;;69.63;32.10;;;2.50;99.90;;;;;;2625434;54;20369;-83
2022/01/13 08:56:23;;;;;;;43.83;21.07;;;2.60;99.90;;;;;;2625218;47;20480;-82
2022/01/13 08:58:51;;;;;;;68.37;32.67;;;2.70;99.90;;;;;;2625429;47;20924;-83
2022/01/13 09:01:24;;;;;;;42.07;15.80;;;2.50;99.90;;;;;;2625775;54;20359;-84
2022/01/13 09:04:02;;;;;;;54.53;26.30;;;2.60;99.90;;;;;;2625621;47;20430;-80
2022/01/13 09:06:42;;;;;;;63.90;34.17;;;2.70;99.90;;;;;;2626211;54;20383;-83
2022/01/13 09:09:14;;;;;;;68.33;31.70;;;2.60;99.90;;;;;;2626119;47;20398;-82
2022/01/13 09:11:41;;;;;;;77.07;35.43;;;2.70;99.90;;;;;;2625604;54;20396;-82
2022/01/13 09:14:10;;;;;;;67.83;29.67;;;2.80;99.90;;;;;;2625861;54;20944;-82
2022/01/13 09:16:46;;;;;;;53.00;24.20;;;2.80;99.90;;;;;;2627535;39;20927;-82
2022/01/13 09:19:21;;;;;;;48.17;23.67;;;2.60;99.90;;;;;;2631576;39;20927;-83
2022/01/13 09:21:48;;;;;;;66.00;29.37;;;2.60;99.90;;;;;;2626499;39;20898;-82
2022/01/13 09:24:21;;;;;;;66.57;31.43;;;2.60;99.90;;;;;;2626048;54;20386;-80
2022/01/13 09:26:57;;;;;;;66.50;33.27;;;2.70;99.90;;;;;;2625833;47;20399;-83
2022/01/13 09:29:24;;;;;;;62.97;29.57;;;2.90;99.90;;;;;;2625418;46;20414;-83
2022/01/13 09:31:52;;;;;;;64.20;30.40;;;3.00;99.90;;;;;;2626174;47;20399;-82
2022/01/13 09:34:20;;;;;;;71.23;36.17;;;2.80;99.90;;;;;;2625096;39;21137;-84
2022/01/13 09:36:53;;;;;;;85.20;37.53;;;3.00;99.90;;;;;;2624762;54;20380;-84
2022/01/13 09:39:24;;;;;;;77.47;29.17;;;3.20;99.90;;;;;;2625567;47;21111;-84
2022/01/13 09:42:01;;;;;;;69.93;32.50;;;3.20;99.90;;;;;;2627187;47;20458;-83
2022/01/13 09:44:42;;;;;;;72.93;32.60;;;3.10;99.90;;;;;;2629709;31;20994;-83
2022/01/13 09:47:08;;;;;;;59.23;31.60;;;3.40;99.90;;;;;;2626261;47;20403;-82
2022/01/13 09:49:35;;;;;;;67.70;35.20;;;3.30;99.90;;;;;;2622517;47;20462;-79
2022/01/13 09:52:01;;;;;;;56.83;26.00;;;3.40;99.90;;;;;;2622885;54;20379;-78
2022/01/13 09:54:28;;;;;;;63.87;32.47;;;3.30;99.90;;;;;;2622996;47;20371;-78
2022/01/13 09:56:55;;;;;;;67.90;34.07;;;3.40;99.90;;;;;;2623144;54;20384;-79
2022/01/13 09:59:21;;;;;;;65.30;31.93;;;3.40;99.90;;;;;;2623081;47;20384;-78
2022/01/13 10:01:47;;;;;;;37.00;20.30;;;3.40;99.90;;;;;;2623576;47;20375;-79
2022/01/13 10:04:14;;;;;;;55.70;31.07;;;3.30;99.90;;;;;;2622987;46;20139;-78
2022/01/13 10:06:44;;;;;;;59.33;29.37;;;3.50;99.90;;;;;;2623628;46;20414;-79
2022/01/13 10:09:10;;;;;;;48.50;24.83;;;3.40;99.90;;;;;;2622831;54;20995;-80
2022/01/13 10:11:48;;;;;;;65.83;31.97;;;3.40;99.90;;;;;;2623317;39;20847;-81
2022/01/13 10:17:06;;;;;;;57.07;27.27;;;3.40;99.90;;;;;;2623278;54;20940;-80
2022/01/13 10:19:42;;;;;;;66.87;38.10;;;3.40;99.90;;;;;;2623263;47;20382;-78
2022/01/13 10:22:14;;;;;;;62.40;35.30;;;3.40;99.90;;;;;;2623315;46;20938;-79
2022/01/13 10:24:46;;;;;;;77.87;34.63;;;3.60;99.90;;;;;;2622567;47;21189;-79
2022/01/13 10:27:20;;;;;;;64.07;27.53;;;3.80;99.90;;;;;;2622870;54;20375;-80
2022/01/13 10:29:49;;;;;;;39.47;19.57;;;3.70;99.90;;;;;;2622238;47;20912;-79
2022/01/13 10:32:25;;;;;;;72.73;31.87;;;3.60;99.90;;;;;;2622374;54;20518;-78
2022/01/13 10:35:11;;;;;;;70.63;37.40;;;3.50;99.90;;;;;;2622672;46;20395;-80
2022/01/13 10:37:42;;;;;;;68.13;33.80;;;3.60;99.90;;;;;;2622096;47;20380;-81
2022/01/13 10:40:20;;;;;;;62.17;34.20;;;3.90;99.90;;;;;;2622132;47;20376;-81
2022/01/13 10:45:26;;;;;;;38.17;21.77;;;3.80;99.90;;;;;;2622966;54;20362;-79
2022/01/13 10:47:57;;;;;;;66.20;37.50;;;3.80;99.90;;;;;;2622978;47;20393;-78
2022/01/13 10:50:30;;;;;;;76.33;37.20;;;3.70;99.90;;;;;;2622420;54;20347;-80
2022/01/13 10:53:02;;;;;;;61.80;32.70;;;4.10;99.90;;;;;;2622310;47;20416;-78
2022/01/13 10:55:30;;;;;;;71.73;36.73;;;3.90;99.90;;;;;;2623018;47;20386;-80
2022/01/13 10:57:57;;;;;;;82.03;37.60;;;3.80;99.90;;;;;;2622751;47;20400;-80
2022/01/13 11:00:25;;;;;;;71.60;37.73;;;4.00;99.90;;;;;;2622871;47;20383;-80
2022/01/13 11:03:20;;;;;;;77.97;34.27;;;4.20;99.90;;;;;;2622946;47;20375;-78
2022/01/13 11:05:49;;;;;;;65.27;34.10;;;4.30;99.90;;;;;;2623512;47;20383;-79
2022/01/13 11:08:26;;;;;;;68.20;34.70;;;4.00;99.90;;;;;;2622472;47;20419;-82
2022/01/13 11:10:59;;;;;;;70.80;37.93;;;4.00;99.90;;;;;;2620362;54;20391;-81
2022/01/13 11:13:28;;;;;;;61.23;30.57;;;4.30;99.90;;;;;;2621493;47;20441;-82
2022/01/13 11:15:56;;;;;;;54.80;28.37;;;4.10;99.90;;;;;;2622363;39;20467;-80
2022/01/13 11:18:28;;;;;;;72.87;39.23;;;4.10;99.90;;;;;;2621332;47;20387;-82
2022/01/13 11:20:55;;;;;;;78.63;33.73;;;4.50;99.90;;;;;;2621153;54;20432;-82
2022/01/13 11:23:50;;;;;;;46.90;26.03;;;4.60;99.90;;;;;;2622222;46;20414;-82
2022/01/13 11:26:17;;;;;;;75.03;35.77;;;4.60;99.90;;;;;;2620803;54;20371;-82
2022/01/13 11:28:45;;;;;;;35.73;19.33;;;4.80;99.90;;;;;;2621285;47;20426;-83
2022/01/13 11:31:11;;;;;;;65.97;36.50;;;4.80;99.90;;;;;;2622347;47;21010;-81
2022/01/13 11:33:39;;;;;;;37.27;21.50;;;4.70;99.90;;;;;;2622683;47;20371;-82
2022/01/13 11:36:12;;;;;;;61.97;29.20;;;4.70;99.90;;;;;;2622845;47;20379;-81
2022/01/13 11:38:51;;;;;;;38.67;20.70;;;5.00;99.90;;;;;;2622564;46;20407;-81
2022/01/13 11:41:17;;;;;;;60.83;27.43;;;4.80;99.90;;;;;;2622814;46;20386;-83
2022/01/13 11:43:43;;;;;;;35.87;19.40;;;5.10;99.90;;;;;;2623295;54;20931;-80
2022/01/13 11:46:15;;;;;;;51.13;25.90;;;5.90;99.90;;;;;;2622557;39;20524;-81
2022/01/13 11:48:54;;;;;;;44.10;22.97;;;6.90;99.90;;;;;;2622442;54;20372;-82
2022/01/13 11:51:21;;;;;;;36.87;19.23;;;6.70;99.90;;;;;;2621875;46;20411;-81
2022/01/13 11:53:55;;;;;;;35.63;17.17;;;7.00;99.90;;;;;;2622943;47;20384;-81
2022/01/13 11:56:22;;;;;;;43.43;19.87;;;6.20;99.90;;;;;;2622649;46;20380;-81
2022/01/13 11:58:48;;;;;;;53.40;27.27;;;6.10;99.90;;;;;;2621761;47;20396;-82
2022/01/13 12:01:35;;;;;;;48.50;28.70;;;6.90;99.90;;;;;;2620885;46;20359;-82
2022/01/13 12:04:06;;;;;;;57.00;26.60;;;7.80;99.90;;;;;;2621178;46;20924;-81
2022/01/13 12:06:37;;;;;;;42.33;25.10;;;8.60;99.90;;;;;;2621620;54;20396;-81
2022/01/13 12:09:06;;;;;;;44.23;22.67;;;9.10;99.90;;;;;;2621765;46;20412;-80
2022/01/13 12:11:37;;;;;;;44.47;25.53;;;8.60;99.90;;;;;;2622002;46;20420;-81
2022/01/13 12:14:24;;;;;;;48.80;23.67;;;8.00;99.90;;;;;;2623107;47;20545;-79
2022/01/13 12:17:11;;;;;;;45.57;25.30;;;9.20;99.90;;;;;;2622177;46;20407;-81
2022/01/13 12:19:46;;;;;;;31.20;16.97;;;9.00;99.90;;;;;;2623258;47;20404;-80
2022/01/13 12:22:47;;;;;;;42.80;22.47;;;7.20;99.90;;;;;;2622831;54;20403;-81
2022/01/13 12:25:17;;;;;;;35.77;18.70;;;8.20;99.90;;;;;;2619348;54;20386;-81
2022/01/13 12:27:49;;;;;;;34.40;17.40;;;8.50;99.90;;;;;;2620196;54;20438;-80
2022/01/13 12:30:24;;;;;;;40.70;22.77;;;8.40;99.90;;;;;;2620236;54;20411;-80
2022/01/13 12:32:59;;;;;;;40.77;24.33;;;8.20;99.90;;;;;;2620073;54;20425;-81
2022/01/13 12:35:40;;;;;;;43.53;23.57;;;9.20;99.90;;;;;;2620139;54;20379;-82
2022/01/13 12:38:12;;;;;;;39.27;21.97;;;9.30;99.90;;;;;;2620310;47;20422;-82
2022/01/13 12:40:44;;;;;;;43.37;21.67;;;10.50;99.90;;;;;;2619502;54;20414;-82
2022/01/13 12:43:21;;;;;;;40.07;23.47;;;10.20;99.90;;;;;;2619608;46;20626;-82
2022/01/13 12:45:47;;;;;;;38.33;23.47;;;9.30;99.90;;;;;;2620284;46;20502;-82
2022/01/13 12:48:17;;;;;;;29.13;15.13;;;9.90;99.90;;;;;;2621533;47;20451;-80
2022/01/13 12:50:47;;;;;;;40.50;23.80;;;9.30;99.90;;;;;;2621327;47;21065;-80
2022/01/13 12:53:26;;;;;;;43.53;22.37;;;9.00;99.90;;;;;;2621049;54;20439;-79
2022/01/13 12:56:05;;;;;;;37.97;20.43;;;8.80;99.90;;;;;;2619822;46;21277;-80
2022/01/13 12:58:46;;;;;;;40.63;23.77;;;9.80;99.90;;;;;;2620730;47;20446;-81
2022/01/13 13:01:18;;;;;;;39.97;23.67;;;9.90;99.90;;;;;;2620301;54;22283;-81
2022/01/13 13:04:20;;;;;;;40.20;22.03;;;10.80;99.90;;;;;;2619892;47;20432;-81
2022/01/13 13:06:49;;;;;;;39.30;19.23;;;11.10;99.90;;;;;;2620984;46;20407;-83
2022/01/13 13:09:20;;;;;;;34.70;22.27;;;11.40;99.90;;;;;;2621814;31;20955;-83
2022/01/13 13:11:49;;;;;;;25.27;15.27;;;9.80;99.90;;;;;;2622893;47;20400;-81
2022/01/13 13:14:23;;;;;;;42.10;23.07;;;9.60;99.90;;;;;;2620831;47;20411;-82
2022/01/13 13:16:53;;;;;;;43.20;24.30;;;9.50;99.90;;;;;;2620639;47;20451;-81
2022/01/13 13:19:19;;;;;;;34.10;18.50;;;9.40;99.90;;;;;;2620664;54;20395;-81
2022/01/13 13:21:51;;;;;;;36.37;23.00;;;10.30;99.90;;;;;;2621100;47;20375;-82
2022/01/13 13:24:17;;;;;;;42.47;23.43;;;9.60;99.90;;;;;;2619389;54;20418;-81
2022/01/13 13:26:44;;;;;;;40.50;23.13;;;10.70;99.90;;;;;;2620095;47;20410;-80